createdAt,value
2023-02-04T00:03:55.917Z,101901.47
2023-02-04T00:09:00.720Z,101898.03
2023-02-04T00:14:06.510Z,101905.69
2023-02-04T00:19:11.371Z,101900.50
2023-02-04T00:24:15.958Z,101913.31
2023-02-04T00:29:20.570Z,101900.38
2023-02-04T00:34:25.506Z,101907.09
2023-02-04T00:39:30.358Z,101922.34
2023-02-04T00:44:37.649Z,101912.72
2023-02-04T00:49:42.375Z,101916.84
2023-02-04T00:54:47.132Z,101924.34
2023-02-04T00:59:52.007Z,101935.28
2023-02-04T01:04:56.751Z,101932.50
2023-02-04T01:10:01.561Z,101941.66
2023-02-04T01:15:07.014Z,101998.03
2023-02-04T01:20:22.445Z,101944.44
2023-02-04T01:25:27.934Z,101947.53
2023-02-04T01:30:33.170Z,101936.88
2023-02-04T01:35:38.139Z,101920.22
2023-02-04T01:40:45.554Z,101919.81
2023-02-04T01:45:53.071Z,101903.03
2023-02-04T01:51:19.197Z,101887.00
2023-02-04T01:56:29.008Z,101879.56
2023-02-04T02:01:46.392Z,101892.72
2023-02-04T02:07:04.686Z,101914.50
2023-02-04T02:12:09.469Z,101888.75
2023-02-04T02:17:14.373Z,101872.38
2023-02-04T02:22:31.209Z,101869.03
2023-02-04T02:27:36.142Z,101875.19
2023-02-04T02:32:41.383Z,101873.69
2023-02-04T02:37:46.566Z,101883.34
2023-02-04T02:42:55.098Z,101870.56
2023-02-04T02:48:02.122Z,101865.56
2023-02-04T02:53:12.702Z,101901.13
2023-02-04T02:58:33.556Z,101862.81
2023-02-04T03:03:40.190Z,101850.41
2023-02-04T03:08:46.379Z,101831.41
2023-02-04T03:13:53.210Z,101821.94
2023-02-04T03:18:58.297Z,101809.00
2023-02-04T03:24:04.430Z,101805.63
2023-02-04T03:29:11.529Z,101785.69
2023-02-04T03:34:16.387Z,101768.34
2023-02-04T03:39:21.685Z,101760.53
2023-02-04T03:44:31.411Z,101780.47
2023-02-04T03:49:37.461Z,101745.03
2023-02-04T03:54:44.790Z,101743.19
2023-02-04T03:59:49.756Z,101765.63
2023-02-04T04:04:54.694Z,101713.38
2023-02-04T04:09:59.570Z,101712.44
2023-02-04T04:15:04.836Z,101699.25
2023-02-04T04:20:10.492Z,101680.88
2023-02-04T04:25:15.512Z,101673.91
2023-02-04T04:30:22.077Z,101655.88
2023-02-04T04:35:27.811Z,101650.84
2023-02-04T04:40:33.371Z,101630.19
2023-02-04T04:45:38.582Z,101662.59
2023-02-04T04:50:44.086Z,101605.31
2023-02-04T04:55:49.106Z,101594.91
2023-02-04T05:00:53.568Z,101572.09
2023-02-04T05:05:58.675Z,101562.00
2023-02-04T05:11:05.426Z,101552.13
2023-02-04T05:16:13.553Z,101538.13
2023-02-04T05:21:18.667Z,101531.31
2023-02-04T05:26:30.335Z,101527.66
2023-02-04T05:31:37.524Z,101520.44
2023-02-04T05:36:43.795Z,101502.94
2023-02-04T05:41:52.103Z,101497.66
2023-02-04T05:46:57.752Z,101486.56
2023-02-04T05:52:02.998Z,101473.63
2023-02-04T05:57:08.259Z,101472.28
2023-02-04T06:02:13.388Z,101469.34
2023-02-04T06:07:19.055Z,101455.84
2023-02-04T06:12:24.564Z,101450.66
2023-02-04T06:17:30.610Z,101439.16
2023-02-04T06:22:35.991Z,101434.13
2023-02-04T06:27:42.303Z,101438.84
2023-02-04T06:32:48.334Z,101443.03
2023-02-04T06:37:53.524Z,101438.00
2023-02-04T06:43:00.865Z,101436.44
2023-02-04T06:48:06.431Z,101431.50
2023-02-04T06:53:12.046Z,101424.38
2023-02-04T06:58:18.686Z,101420.16
2023-02-04T07:03:23.915Z,101416.59
2023-02-04T07:08:29.250Z,101408.81
2023-02-04T07:13:34.885Z,101404.50
2023-02-04T07:18:41.197Z,101400.44
2023-02-04T07:23:46.627Z,101423.94
2023-02-04T07:28:52.237Z,101430.97
2023-02-04T07:33:59.964Z,101405.03
2023-02-04T07:39:05.739Z,101403.50
2023-02-04T07:44:11.677Z,101394.56
2023-02-04T07:49:18.413Z,101404.06
2023-02-04T07:54:24.025Z,101394.28
2023-02-04T07:59:30.699Z,101386.41
2023-02-04T08:04:37.326Z,101389.84
2023-02-04T08:09:43.010Z,101382.16
2023-02-04T08:14:48.326Z,101388.06
2023-02-04T08:19:54.002Z,101370.63
2023-02-04T08:24:59.527Z,101370.00
2023-02-04T08:30:05.771Z,101360.22
2023-02-04T08:48:45.947Z,101365.78
2023-02-04T08:53:52.194Z,101376.00
2023-02-04T08:58:57.319Z,101374.88
2023-02-04T09:04:03.844Z,101389.44
2023-02-04T09:09:08.967Z,101359.84
2023-02-04T09:14:14.162Z,101352.16
2023-02-04T09:19:25.369Z,101347.91
2023-02-04T09:24:32.078Z,101362.25
2023-02-04T09:29:37.208Z,101357.22
2023-02-04T09:34:42.730Z,101354.63
2023-02-04T09:39:47.922Z,101386.97
2023-02-04T09:44:53.532Z,101365.34
2023-02-04T09:49:59.257Z,101387.31
2023-02-04T09:55:04.154Z,101371.56
2023-02-04T10:00:21.974Z,101389.59
2023-02-04T10:05:32.679Z,101384.19
2023-02-04T10:10:37.685Z,101402.66
2023-02-04T10:15:42.542Z,101389.78
2023-02-04T10:20:47.373Z,101390.44
2023-02-04T10:25:52.261Z,101397.84
2023-02-04T10:30:57.374Z,101396.06
2023-02-04T10:36:03.402Z,101454.16
2023-02-04T10:41:08.100Z,101404.56
2023-02-04T10:46:14.183Z,101413.09
2023-02-04T10:51:19.062Z,101410.16
2023-02-04T10:56:24.443Z,101419.66
2023-02-04T11:01:31.623Z,101431.41
2023-02-04T11:06:36.896Z,101446.00
2023-02-04T11:11:46.928Z,101440.19
2023-02-04T11:16:53.407Z,101442.13
2023-02-04T11:22:23.605Z,101442.31
2023-02-04T11:27:43.012Z,101445.16
2023-02-04T11:33:03.285Z,101436.63
2023-02-04T11:38:30.022Z,101440.41
2023-02-04T11:43:39.175Z,101442.44
2023-02-04T11:48:45.498Z,101430.69
2023-02-04T11:53:54.697Z,101437.19
2023-02-04T11:59:01.143Z,101441.84
2023-02-04T12:04:09.210Z,101446.72
2023-02-04T12:09:33.267Z,101420.66
2023-02-04T12:14:41.456Z,101426.50
2023-02-04T12:19:46.605Z,101433.44
2023-02-04T12:24:52.912Z,101437.41
2023-02-04T12:29:58.031Z,101450.00
2023-02-04T12:35:03.022Z,101433.25
2023-02-04T12:40:09.031Z,101456.31
2023-02-04T12:45:17.884Z,101441.13
2023-02-04T12:50:27.635Z,101444.16
2023-02-04T12:55:33.689Z,101462.63
2023-02-04T13:00:40.002Z,101446.38
2023-02-04T13:05:45.836Z,101451.22
2023-02-04T13:10:53.283Z,101453.25
2023-02-04T13:15:58.653Z,101450.03
2023-02-04T13:21:04.399Z,101446.81
2023-02-04T13:26:12.078Z,101446.22
2023-02-04T13:31:19.520Z,101450.50
2023-02-04T13:36:25.316Z,101439.94
2023-02-04T13:41:31.233Z,101438.03
2023-02-04T13:46:39.905Z,101439.75
2023-02-04T13:51:45.576Z,101427.78
2023-02-04T13:56:51.487Z,101437.31
2023-02-04T14:01:57.313Z,101420.81
2023-02-04T14:07:03.376Z,101415.63
2023-02-04T14:12:09.746Z,101420.00
2023-02-04T14:17:14.307Z,101417.47
2023-02-04T14:22:23.923Z,101447.84
2023-02-04T14:27:29.605Z,101416.25
2023-02-04T14:32:35.184Z,101412.34
2023-02-04T14:37:41.015Z,101410.16
2023-02-04T14:42:46.457Z,101397.63
2023-02-04T14:47:54.115Z,101398.72
2023-02-04T14:53:01.614Z,101382.63
2023-02-04T14:58:08.891Z,101387.25
2023-02-04T15:03:18.718Z,101389.97
2023-02-04T15:08:24.682Z,101395.31
2023-02-04T15:13:31.193Z,101416.00
2023-02-04T15:18:36.929Z,101381.56
2023-02-04T15:23:59.265Z,101392.81
2023-02-04T15:29:06.820Z,101391.22
2023-02-04T15:34:12.577Z,101382.59
2023-02-04T15:39:19.967Z,101385.34
2023-02-04T15:44:28.251Z,101379.59
2023-02-04T15:49:35.400Z,101406.72
2023-02-04T15:54:42.613Z,101376.88
2023-02-04T15:59:48.739Z,101368.44
2023-02-04T16:04:55.766Z,101351.16
2023-02-04T16:10:01.134Z,101347.66
2023-02-04T16:15:08.554Z,101366.41
2023-02-04T16:20:15.117Z,101326.66
2023-02-04T16:25:20.902Z,101335.16
2023-02-04T16:30:27.696Z,101323.03
2023-02-04T16:35:36.095Z,101318.00
2023-02-04T16:40:40.987Z,101316.53
2023-02-04T16:45:46.715Z,101313.53
2023-02-04T16:50:51.939Z,101320.72
2023-02-04T16:55:57.576Z,101315.84
2023-02-04T17:01:03.235Z,101312.69
2023-02-04T17:06:08.270Z,101312.03
2023-02-04T17:11:33.498Z,101308.75
2023-02-04T17:16:38.988Z,101312.22
2023-02-04T17:21:44.373Z,101313.03
2023-02-04T17:26:50.081Z,101320.75
2023-02-04T17:31:57.244Z,101346.59
2023-02-04T17:37:02.749Z,101307.09
2023-02-04T17:42:07.938Z,101306.13
2023-02-04T17:47:13.923Z,101318.31
2023-02-04T17:52:19.197Z,101312.66
2023-02-04T17:57:24.313Z,101311.25
2023-02-04T18:02:32.881Z,101306.34
2023-02-04T18:07:38.643Z,101318.63
2023-02-04T18:12:43.843Z,101305.97
2023-02-04T18:17:48.865Z,101311.34
2023-02-04T18:23:04.060Z,101303.53
2023-02-04T18:28:17.898Z,101309.47
2023-02-04T18:33:28.325Z,101307.69
2023-02-04T18:38:40.439Z,101301.56
2023-02-04T18:43:55.200Z,101304.19
2023-02-04T18:49:32.693Z,101294.78
2023-02-04T18:54:39.531Z,101288.97
2023-02-04T18:59:44.861Z,101281.56
2023-02-04T19:04:49.980Z,101276.50
2023-02-04T19:09:57.695Z,101281.06
2023-02-04T19:15:03.324Z,101278.59
2023-02-04T19:20:20.851Z,101266.75
2023-02-04T19:25:36.834Z,101284.78
2023-02-04T19:30:47.989Z,101266.69
2023-02-04T19:35:53.552Z,101248.38
2023-02-04T19:40:58.761Z,101253.56
2023-02-04T19:46:18.398Z,101248.47
2023-02-04T19:51:32.043Z,101256.47
2023-02-04T19:56:39.798Z,101244.69
2023-02-04T20:01:45.299Z,101254.34
2023-02-04T20:06:50.771Z,101259.69
2023-02-04T20:11:58.503Z,101244.22
2023-02-04T20:17:12.284Z,101271.94
2023-02-04T20:22:24.622Z,101240.25
2023-02-04T20:27:37.962Z,101227.50
2023-02-04T20:32:47.516Z,101218.94
2023-02-04T20:37:58.553Z,101229.13
2023-02-04T20:43:08.370Z,101218.00
2023-02-04T20:48:19.032Z,101216.41
2023-02-04T20:53:30.959Z,101210.50
2023-02-04T20:58:43.466Z,101209.75
2023-02-04T21:03:50.656Z,101217.47
2023-02-04T21:08:58.702Z,101226.97
2023-02-04T21:14:03.540Z,101224.56
2023-02-04T21:19:07.578Z,101227.28
2023-02-04T21:24:12.215Z,101227.22
2023-02-04T21:29:17.021Z,101221.22
2023-02-04T21:34:21.648Z,101213.56
2023-02-04T21:39:27.415Z,101223.13
2023-02-04T21:44:32.161Z,101223.88
2023-02-04T21:49:39.812Z,101226.47
2023-02-04T21:54:46.137Z,101227.06
2023-02-04T21:59:51.277Z,101231.09
2023-02-04T22:04:56.078Z,101225.84
2023-02-04T22:10:00.818Z,101229.31
2023-02-04T22:15:05.371Z,101219.22
2023-02-04T22:20:11.878Z,101245.22
2023-02-04T22:25:19.714Z,101215.50
2023-02-04T22:30:27.310Z,101214.00
2023-02-04T22:35:36.273Z,101209.00
2023-02-04T22:40:41.608Z,101210.53
2023-02-04T22:45:48.190Z,101208.94
2023-02-04T22:50:53.440Z,101201.47
2023-02-04T22:55:59.009Z,101200.72
2023-02-04T23:01:04.499Z,101208.38
2023-02-04T23:06:10.123Z,101201.47
2023-02-04T23:11:15.445Z,101210.91
2023-02-04T23:16:21.063Z,101215.25
2023-02-04T23:21:26.630Z,101230.72
2023-02-04T23:26:30.975Z,101223.94
2023-02-04T23:31:36.296Z,101221.38
2023-02-04T23:36:41.003Z,101223.13
2023-02-04T23:41:45.196Z,101224.81
2023-02-04T23:46:50.513Z,101196.34
2023-02-04T23:51:55.269Z,101208.03
2023-02-04T23:57:00.171Z,101221.53
